Time;durP1;ratioP1;P1;durP2;ratioP2;P2;SDS_P1;SDS_P2;PMS_P1;PMS_P2;Temp;Humidity;BMP_temperature;BMP_pressure;BME280_temperature;BME280_humidity;BME280_pressure;Samples;Min_cycle;Max_cycle;Signal;HPM_P1;HPM_P2
2023/01/10 00:00:06;;;;;;;;;;;;;;;10.56;nan;100663.31;5042209;28;19978;-33
2023/01/10 00:02:31;;;;;;;;;;;;;;;10.56;nan;100668.66;5047565;28;19924;-33
2023/01/10 00:04:56;;;;;;;;;;;;;;;10.55;nan;100667.84;5037908;28;19924;-33
2023/01/10 00:07:22;;;;;;;;;;;;;;;10.54;nan;100674.28;5044549;28;19999;-33
2023/01/10 00:09:47;;;;;;;;;;;;;;;10.55;nan;100669.72;5042252;28;20023;-33
2023/01/10 00:14:56;;;;;;;;;;;;;;;10.55;nan;100664.38;5044871;28;19925;-33
2023/01/10 00:17:22;;;;;;;;;;;;;;;10.55;nan;100657.16;5044818;28;19917;-33
2023/01/10 00:19:47;;;;;;;;;;;;;;;10.56;nan;100658.75;5041954;28;19929;-33
2023/01/10 00:22:13;;;;;;;;;;;;;;;10.62;nan;100656.16;5042960;28;19948;-33
2023/01/10 00:24:38;;;;;;;;;;;;;;;10.66;nan;100662.63;5042034;28;19917;-33
2023/01/10 00:27:04;;;;;;;;;;;;;;;10.70;nan;100667.22;5044831;28;20429;-33
2023/01/10 00:29:34;;;;;;;;;;;;;;;10.70;nan;100659.19;5048371;28;19981;-33
2023/01/10 00:31:59;;;;;;;;;;;;;;;10.69;nan;100664.81;5042317;28;19921;-33
2023/01/10 00:34:25;;;;;;;;;;;;;;;10.72;nan;100664.31;5041463;28;20390;-33
2023/01/10 00:36:51;;;;;;;;;;;;;;;10.79;nan;100664.94;5049502;28;20213;-33
2023/01/10 00:39:19;;;;;;;;;;;;;;;10.79;nan;100668.44;5044396;28;19994;-33
2023/01/10 00:44:29;;;;;;;;;;;;;;;10.83;nan;100669.53;5038898;28;20435;-33
2023/01/10 00:46:54;;;;;;;;;;;;;;;10.84;nan;100679.19;5044959;28;19921;-33
2023/01/10 00:49:20;;;;;;;;;;;;;;;10.79;nan;100689.88;5047224;28;20011;-33
2023/01/10 00:51:45;;;;;;;;;;;;;;;10.77;nan;100692.00;5041998;28;20011;-33
2023/01/10 00:54:11;;;;;;;;;;;;;;;10.78;nan;100703.53;5043672;28;19921;-33
2023/01/10 00:56:36;;;;;;;;;;;;;;;10.79;nan;100705.13;5042565;28;20297;-33
2023/01/10 00:59:02;;;;;;;;;;;;;;;10.82;nan;100710.00;5045842;28;19924;-33
2023/01/10 01:01:28;;;;;;;;;;;;;;;10.86;nan;100713.78;5040793;28;20314;-33
2023/01/10 01:03:53;;;;;;;;;;;;;;;10.88;nan;100717.03;5046123;28;20011;-33
2023/01/10 01:06:18;;;;;;;;;;;;;;;10.87;nan;100723.44;5042300;28;19917;-33
2023/01/10 01:08:44;;;;;;;;;;;;;;;10.90;nan;100723.75;5045243;28;19943;-33
2023/01/10 01:11:09;;;;;;;;;;;;;;;10.90;nan;100722.94;5047192;28;20394;-33
2023/01/10 01:13:35;;;;;;;;;;;;;;;10.88;nan;100731.22;5044063;28;20024;-33
2023/01/10 01:16:00;;;;;;;;;;;;;;;10.90;nan;100737.16;5044717;28;20004;-33
2023/01/10 01:18:26;;;;;;;;;;;;;;;10.97;nan;100738.84;5043419;28;19916;-33
2023/01/10 01:20:52;;;;;;;;;;;;;;;10.94;nan;100742.81;5047380;28;19921;-33
2023/01/10 01:23:18;;;;;;;;;;;;;;;10.89;nan;100743.56;5042726;28;20203;-33
2023/01/10 01:25:43;;;;;;;;;;;;;;;10.90;nan;100749.75;5042450;28;19967;-33
2023/01/10 01:28:11;;;;;;;;;;;;;;;10.94;nan;100748.19;5043305;28;20118;-33
2023/01/10 01:30:37;;;;;;;;;;;;;;;10.98;nan;100746.63;5043793;28;20530;-33
2023/01/10 01:33:02;;;;;;;;;;;;;;;11.07;nan;100752.34;5047582;28;19956;-33
2023/01/10 01:35:28;;;;;;;;;;;;;;;11.10;nan;100757.22;5047494;28;19960;-33
2023/01/10 01:37:53;;;;;;;;;;;;;;;11.14;nan;100766.41;5043986;28;19921;-33
2023/01/10 01:40:20;;;;;;;;;;;;;;;11.19;nan;100777.19;5041207;28;19921;-33
2023/01/10 01:42:46;;;;;;;;;;;;;;;11.25;nan;100778.03;5042964;28;20329;-33
2023/01/10 01:45:33;;;;;;;;;;;;;;;11.26;nan;100793.88;5044409;28;19921;-33
2023/01/10 01:48:07;;;;;;;;;;;;;;;11.23;nan;100794.38;5043445;28;19917;-33
2023/01/10 01:50:36;;;;;;;;;;;;;;;11.20;nan;100798.38;5042931;28;20155;-33
2023/01/10 01:53:05;;;;;;;;;;;;;;;11.21;nan;100812.59;5041553;28;19956;-33
2023/01/10 01:55:33;;;;;;;;;;;;;;;11.20;nan;100806.41;5060061;22;19936;-32
2023/01/10 01:58:00;;;;;;;;;;;;;;;11.19;nan;100812.84;5036292;28;19932;-32
2023/01/10 02:00:26;;;;;;;;;;;;;;;11.20;nan;100813.66;5038939;28;20024;-32
2023/01/10 02:02:53;;;;;;;;;;;;;;;11.24;nan;100819.31;5039061;28;19986;-33
2023/01/10 02:05:21;;;;;;;;;;;;;;;11.30;nan;100821.81;5040274;28;20033;-32
2023/01/10 02:07:49;;;;;;;;;;;;;;;11.30;nan;100821.81;5038568;28;19925;-32
2023/01/10 02:10:32;;;;;;;;;;;;;;;11.31;nan;100826.13;5039148;28;20283;-32
2023/01/10 02:13:00;;;;;;;;;;;;;;;11.31;nan;100831.50;5037604;28;20015;-32
2023/01/10 02:15:25;;;;;;;;;;;;;;;11.31;nan;100827.97;5037074;28;19917;-32
2023/01/10 02:17:51;;;;;;;;;;;;;;;11.30;nan;100829.03;5036242;28;19932;-32
2023/01/10 02:20:17;;;;;;;;;;;;;;;11.29;nan;100833.59;5037034;28;19922;-32
2023/01/10 02:22:55;;;;;;;;;;;;;;;11.32;nan;100849.22;5037199;28;19923;-32
2023/01/10 02:25:35;;;;;;;;;;;;;;;11.35;nan;100839.84;5039695;28;20278;-32
2023/01/10 02:28:19;;;;;;;;;;;;;;;11.36;nan;100853.00;5033882;28;19951;-32
2023/01/10 02:30:45;;;;;;;;;;;;;;;11.40;nan;100846.06;5037174;28;20373;-32
2023/01/10 02:33:10;;;;;;;;;;;;;;;11.42;nan;100840.47;5037312;28;19916;-32
2023/01/10 02:35:44;;;;;;;;;;;;;;;11.45;nan;100845.31;5037367;28;19950;-32
2023/01/10 02:38:18;;;;;;;;;;;;;;;11.46;nan;100849.63;5037024;28;19924;-32
2023/01/10 02:40:44;;;;;;;;;;;;;;;11.47;nan;100851.25;5038691;28;20025;-32
2023/01/10 02:43:12;;;;;;;;;;;;;;;11.50;nan;100851.56;5035913;28;19917;-32
2023/01/10 02:45:45;;;;;;;;;;;;;;;11.54;nan;100851.88;5044282;28;19969;-32
2023/01/10 02:48:10;;;;;;;;;;;;;;;11.55;nan;100861.53;5045005;28;19940;-32
2023/01/10 02:50:41;;;;;;;;;;;;;;;11.59;nan;100859.16;5043861;28;20390;-32
2023/01/10 02:53:13;;;;;;;;;;;;;;;11.63;nan;100860.28;5042965;28;19924;-32
2023/01/10 02:55:38;;;;;;;;;;;;;;;11.67;nan;100861.38;5040105;28;19917;-33
2023/01/10 02:58:10;;;;;;;;;;;;;;;11.76;nan;100865.25;5042926;28;20554;-32
2023/01/10 03:00:41;;;;;;;;;;;;;;;11.87;nan;100871.56;5042939;28;19925;-32
2023/01/10 03:03:32;;;;;;;;;;;;;;;11.91;nan;100870.81;5046282;28;19925;-33
2023/01/10 03:06:15;;;;;;;;;;;;;;;12.02;nan;100871.69;5043358;28;19971;-32
2023/01/10 03:08:40;;;;;;;;;;;;;;;12.05;nan;100879.28;5039298;28;19916;-32
2023/01/10 03:11:08;;;;;;;;;;;;;;;12.10;nan;100890.88;5040912;28;19925;-33
2023/01/10 03:13:36;;;;;;;;;;;;;;;12.15;nan;100894.66;5042519;28;19916;-32
2023/01/10 03:16:03;;;;;;;;;;;;;;;12.16;nan;100902.47;5041895;28;19962;-32
2023/01/10 03:18:54;;;;;;;;;;;;;;;12.21;nan;100905.22;5041366;28;20593;-32
2023/01/10 03:21:20;;;;;;;;;;;;;;;12.29;nan;100912.78;5009516;28;20007;-32
2023/01/10 03:23:48;;;;;;;;;;;;;;;12.33;nan;100911.22;5043392;28;20463;-32
2023/01/10 03:26:14;;;;;;;;;;;;;;;12.35;nan;100917.13;5044607;28;20090;-32
2023/01/10 03:28:51;;;;;;;;;;;;;;;12.40;nan;100914.50;5043850;28;19924;-32
2023/01/10 03:31:20;;;;;;;;;;;;;;;12.38;nan;100922.00;5040945;28;19921;-32
2023/01/10 03:33:46;;;;;;;;;;;;;;;12.40;nan;100914.50;5042988;28;19949;-33
2023/01/10 03:36:25;;;;;;;;;;;;;;;12.43;nan;100921.25;5040046;28;20390;-32
2023/01/10 03:38:55;;;;;;;;;;;;;;;12.46;nan;100930.66;5042305;28;19983;-32
2023/01/10 03:41:29;;;;;;;;;;;;;;;12.51;nan;100941.47;5039630;28;19932;-32
2023/01/10 03:47:17;;;;;;;;;;;;;;;12.56;nan;100958.44;5040680;28;19927;-32
2023/01/10 03:49:46;;;;;;;;;;;;;;;12.54;nan;100968.63;5043202;28;19917;-33
2023/01/10 03:52:14;;;;;;;;;;;;;;;12.57;nan;100983.47;5035436;28;19928;-32
2023/01/10 03:54:41;;;;;;;;;;;;;;;12.55;nan;100975.63;5042994;28;20323;-32
2023/01/10 03:57:06;;;;;;;;;;;;;;;12.58;nan;100980.50;5041006;28;19925;-32
2023/01/10 03:59:32;;;;;;;;;;;;;;;12.61;nan;100982.69;5038817;28;20263;-32
2023/01/10 04:01:57;;;;;;;;;;;;;;;12.62;nan;100987.00;5043938;28;19925;-33
2023/01/10 04:04:23;;;;;;;;;;;;;;;12.64;nan;100984.84;5038176;28;19917;-32
2023/01/10 04:06:48;;;;;;;;;;;;;;;12.63;nan;100993.19;5041955;28;20023;-33
2023/01/10 04:09:13;;;;;;;;;;;;;;;12.64;nan;101003.66;5040643;28;20014;-33
2023/01/10 04:11:39;;;;;;;;;;;;;;;12.65;nan;101016.03;5045105;28;19917;-33
2023/01/10 04:14:04;;;;;;;;;;;;;;;12.67;nan;101018.47;5042160;28;19924;-32
2023/01/10 04:16:30;;;;;;;;;;;;;;;12.70;nan;101023.34;5041052;28;20432;-32
2023/01/10 04:18:55;;;;;;;;;;;;;;;12.66;nan;101027.59;5044035;28;20144;-33
2023/01/10 04:21:20;;;;;;;;;;;;;;;12.68;nan;101036.22;5043714;28;19923;-33
2023/01/10 04:23:46;;;;;;;;;;;;;;;12.70;nan;101053.72;5039320;28;20063;-33
2023/01/10 04:26:11;;;;;;;;;;;;;;;12.65;nan;101060.94;5042424;28;20020;-33
2023/01/10 04:28:37;;;;;;;;;;;;;;;12.64;nan;101065.50;5043191;28;19920;-33
2023/01/10 04:31:02;;;;;;;;;;;;;;;12.67;nan;101081.13;5042836;28;19920;-33
2023/01/10 04:33:27;;;;;;;;;;;;;;;12.68;nan;101081.94;5042247;28;19942;-33
2023/01/10 04:35:53;;;;;;;;;;;;;;;12.68;nan;101088.13;5040861;28;20011;-33
2023/01/10 04:38:18;;;;;;;;;;;;;;;12.69;nan;101095.13;5041457;28;19924;-33
2023/01/10 04:40:44;;;;;;;;;;;;;;;12.74;nan;101097.03;5039578;28;19932;-33
2023/01/10 04:43:10;;;;;;;;;;;;;;;12.73;nan;101099.97;5041707;28;20282;-33
2023/01/10 04:45:36;;;;;;;;;;;;;;;12.77;nan;101101.94;5042578;28;20018;-33
2023/01/10 04:48:01;;;;;;;;;;;;;;;12.76;nan;101104.88;5037688;28;20202;-33
2023/01/10 04:50:26;;;;;;;;;;;;;;;12.76;nan;101121.81;5041681;28;19917;-33
2023/01/10 04:52:52;;;;;;;;;;;;;;;12.79;nan;101132.06;5043086;28;19978;-33
2023/01/10 04:55:17;;;;;;;;;;;;;;;12.79;nan;101142.81;5041523;28;19917;-33
2023/01/10 04:57:43;;;;;;;;;;;;;;;12.81;nan;101147.94;5038255;28;19917;-32
2023/01/10 05:00:09;;;;;;;;;;;;;;;12.86;nan;101151.50;5036800;28;19925;-33
2023/01/10 05:02:34;;;;;;;;;;;;;;;12.89;nan;101152.84;5041084;28;19924;-33
2023/01/10 05:05:00;;;;;;;;;;;;;;;12.88;nan;101156.59;5038423;28;19920;-33
2023/01/10 05:07:25;;;;;;;;;;;;;;;12.92;nan;101161.22;5044094;28;20404;-33
2023/01/10 05:09:50;;;;;;;;;;;;;;;12.92;nan;101166.59;5039130;28;19931;-32
2023/01/10 05:12:16;;;;;;;;;;;;;;;12.92;nan;101180.03;5039170;28;19921;-33
2023/01/10 05:14:41;;;;;;;;;;;;;;;12.94;nan;101183.31;5042086;28;19962;-33
2023/01/10 05:17:06;;;;;;;;;;;;;;;12.93;nan;101187.06;5038711;28;19925;-33
2023/01/10 05:19:31;;;;;;;;;;;;;;;12.88;nan;101186.19;5040554;28;20393;-33
2023/01/10 05:21:57;;;;;;;;;;;;;;;12.90;nan;101198.31;5038030;28;20623;-33
2023/01/10 05:24:22;;;;;;;;;;;;;;;12.91;nan;101199.94;5039775;28;20062;-33
2023/01/10 05:26:48;;;;;;;;;;;;;;;12.87;nan;101206.09;5038298;28;19924;-33
2023/01/10 05:29:13;;;;;;;;;;;;;;;12.85;nan;101200.97;5040561;28;20011;-33
2023/01/10 05:31:39;;;;;;;;;;;;;;;12.82;nan;101204.16;5041703;28;19917;-33
2023/01/10 05:34:04;;;;;;;;;;;;;;;12.84;nan;101203.91;5041012;28;20161;-33
2023/01/10 05:36:30;;;;;;;;;;;;;;;12.81;nan;101215.97;5040983;28;20371;-33
2023/01/10 05:38:55;;;;;;;;;;;;;;;12.81;nan;101221.34;5035982;28;19927;-32
2023/01/10 05:41:22;;;;;;;;;;;;;;;12.82;nan;101224.84;5034141;28;20491;-32
2023/01/10 05:43:47;;;;;;;;;;;;;;;12.83;nan;101229.97;5036972;28;20078;-32
2023/01/10 05:46:13;;;;;;;;;;;;;;;12.81;nan;101226.72;5038479;28;19979;-33
2023/01/10 05:48:38;;;;;;;;;;;;;;;12.84;nan;101239.66;5039191;28;20297;-33
2023/01/10 05:51:04;;;;;;;;;;;;;;;12.86;nan;101239.41;5042042;28;19967;-33
2023/01/10 05:53:29;;;;;;;;;;;;;;;12.88;nan;101248.03;5042030;28;19927;-33
2023/01/10 05:55:56;;;;;;;;;;;;;;;12.90;nan;101254.78;5034353;28;19920;-33
2023/01/10 05:58:21;;;;;;;;;;;;;;;12.93;nan;101251.63;5036834;28;20008;-33
2023/01/10 06:00:47;;;;;;;;;;;;;;;12.94;nan;101253.25;5035999;28;19979;-32
2023/01/10 06:03:12;;;;;;;;;;;;;;;12.96;nan;101259.19;5037116;28;20318;-33
2023/01/10 06:05:37;;;;;;;;;;;;;;;12.94;nan;101264.00;5039275;28;19948;-33
2023/01/10 06:08:03;;;;;;;;;;;;;;;12.98;nan;101267.00;5038514;28;19924;-33
2023/01/10 06:10:28;;;;;;;;;;;;;;;13.01;nan;101269.19;5038704;28;19916;-33
2023/01/10 06:12:54;;;;;;;;;;;;;;;13.07;nan;101286.19;5038591;28;19956;-33
2023/01/10 06:15:19;;;;;;;;;;;;;;;13.08;nan;101288.63;5040532;28;19924;-33
2023/01/10 06:17:44;;;;;;;;;;;;;;;13.08;nan;101285.13;5039856;28;19917;-33
2023/01/10 06:20:10;;;;;;;;;;;;;;;13.03;nan;101302.03;5040693;28;19921;-33
2023/01/10 06:22:38;;;;;;;;;;;;;;;13.01;nan;101307.66;5043842;28;19924;-33
2023/01/10 06:25:04;;;;;;;;;;;;;;;13.02;nan;101303.09;5043920;28;19970;-33
2023/01/10 06:27:29;;;;;;;;;;;;;;;13.06;nan;101316.84;5040643;28;19946;-33
2023/01/10 06:29:54;;;;;;;;;;;;;;;13.02;nan;101324.59;5040932;28;19964;-33
2023/01/10 06:32:19;;;;;;;;;;;;;;;13.04;nan;101327.03;5041256;28;19966;-33
2023/01/10 06:34:45;;;;;;;;;;;;;;;13.03;nan;101337.00;5043108;28;20068;-33
2023/01/10 06:37:10;;;;;;;;;;;;;;;13.04;nan;101344.00;5043774;28;19920;-33
2023/01/10 06:39:36;;;;;;;;;;;;;;;13.06;nan;101349.94;5041512;28;20363;-32
2023/01/10 06:42:01;;;;;;;;;;;;;;;13.05;nan;101348.31;5045245;28;19956;-33
2023/01/10 06:44:26;;;;;;;;;;;;;;;13.04;nan;101348.56;5045185;28;19952;-33
2023/01/10 06:46:52;;;;;;;;;;;;;;;13.05;nan;101356.38;5041069;28;19924;-33
2023/01/10 06:49:17;;;;;;;;;;;;;;;13.08;nan;101355.88;5039872;28;19916;-33
2023/01/10 06:51:42;;;;;;;;;;;;;;;13.12;nan;101358.91;5039352;28;19947;-33
2023/01/10 06:54:08;;;;;;;;;;;;;;;13.12;nan;101362.41;5042093;28;19921;-33
2023/01/10 06:56:33;;;;;;;;;;;;;;;13.11;nan;101374.25;5040727;28;19921;-33
2023/01/10 06:58:58;;;;;;;;;;;;;;;13.10;nan;101369.91;5043555;28;19967;-33
2023/01/10 07:01:24;;;;;;;;;;;;;;;13.10;nan;101379.84;5041443;28;19925;-33
2023/01/10 07:03:49;;;;;;;;;;;;;;;13.11;nan;101381.50;5040332;28;19924;-33
2023/01/10 07:06:15;;;;;;;;;;;;;;;13.14;nan;101381.00;5041200;28;19944;-33
2023/01/10 07:08:41;;;;;;;;;;;;;;;13.13;nan;101384.75;5043854;28;19951;-33
2023/01/10 07:11:10;;;;;;;;;;;;;;;13.15;nan;101379.94;5044736;28;19932;-33
2023/01/10 07:13:35;;;;;;;;;;;;;;;13.17;nan;101393.94;5046458;28;19920;-33
2023/01/10 07:16:01;;;;;;;;;;;;;;;13.18;nan;101393.72;5039516;28;20382;-33
2023/01/10 07:18:27;;;;;;;;;;;;;;;13.23;nan;101406.41;5041922;28;20381;-33
2023/01/10 07:20:54;;;;;;;;;;;;;;;13.22;nan;101404.78;5041754;28;20007;-33
2023/01/10 07:23:19;;;;;;;;;;;;;;;13.22;nan;101407.50;5039000;28;19994;-33
2023/01/10 07:25:45;;;;;;;;;;;;;;;13.24;nan;101413.44;5042015;28;19920;-33
2023/01/10 07:28:10;;;;;;;;;;;;;;;13.20;nan;101413.13;5044106;28;19916;-33
2023/01/10 07:30:36;;;;;;;;;;;;;;;13.22;nan;101418.25;5039878;28;19929;-33
2023/01/10 07:33:02;;;;;;;;;;;;;;;13.21;nan;101419.31;5039823;28;19925;-33
2023/01/10 07:35:28;;;;;;;;;;;;;;;13.23;nan;101427.94;5040111;28;19916;-33
2023/01/10 07:37:56;;;;;;;;;;;;;;;13.22;nan;101435.22;5043022;28;19923;-33
2023/01/10 07:40:22;;;;;;;;;;;;;;;13.23;nan;101449.47;5046704;28;20011;-33
2023/01/10 07:42:47;;;;;;;;;;;;;;;13.25;nan;101440.09;5046595;28;20333;-32
2023/01/10 07:45:12;;;;;;;;;;;;;;;13.20;nan;101452.66;5047181;28;20026;-33
2023/01/10 07:47:38;;;;;;;;;;;;;;;13.22;nan;101458.63;5039974;28;20302;-33
2023/01/10 07:50:03;;;;;;;;;;;;;;;13.25;nan;101460.81;5045013;28;19917;-33
2023/01/10 07:52:29;;;;;;;;;;;;;;;13.23;nan;101471.00;5041449;28;20294;-33
2023/01/10 07:54:54;;;;;;;;;;;;;;;13.20;nan;101477.69;5043475;28;20386;-34
2023/01/10 07:57:19;;;;;;;;;;;;;;;13.23;nan;101476.38;5059514;22;19932;-35
2023/01/10 07:59:44;;;;;;;;;;;;;;;13.25;nan;101480.44;5041702;28;19931;-35
2023/01/10 08:02:10;;;;;;;;;;;;;;;13.24;nan;101481.53;5044728;28;19913;-35
2023/01/10 08:04:37;;;;;;;;;;;;;;;13.23;nan;101493.34;5045939;28;19924;-35
2023/01/10 08:07:02;;;;;;;;;;;;;;;13.22;nan;101497.09;5044033;28;19967;-36
2023/01/10 08:09:28;;;;;;;;;;;;;;;13.25;nan;101498.47;5048585;28;19917;-36
2023/01/10 08:11:53;;;;;;;;;;;;;;;13.28;nan;101511.44;5048662;28;19916;-36
2023/01/10 08:14:18;;;;;;;;;;;;;;;13.29;nan;101507.72;5049023;28;19923;-36
2023/01/10 08:16:44;;;;;;;;;;;;;;;13.30;nan;101512.03;5048764;28;19920;-35
2023/01/10 08:19:11;;;;;;;;;;;;;;;13.28;nan;101514.97;5048042;28;19996;-35
2023/01/10 08:21:36;;;;;;;;;;;;;;;13.29;nan;101519.28;5040139;28;19943;-35
2023/01/10 08:24:02;;;;;;;;;;;;;;;13.32;nan;101511.78;5045859;28;19919;-35
2023/01/10 08:26:27;;;;;;;;;;;;;;;13.32;nan;101514.47;5043172;28;20012;-35
2023/01/10 08:28:52;;;;;;;;;;;;;;;13.33;nan;101519.59;5045601;28;19916;-36
2023/01/10 08:31:18;;;;;;;;;;;;;;;13.32;nan;101527.94;5048146;28;19917;-35
2023/01/10 08:33:43;;;;;;;;;;;;;;;13.33;nan;101527.69;5048830;28;20156;-35
2023/01/10 08:36:15;;;;;;;;;;;;;;;13.33;nan;101532.25;5046888;28;19913;-36
2023/01/10 08:38:41;;;;;;;;;;;;;;;13.32;nan;101527.94;5048691;28;19923;-35
2023/01/10 08:41:06;;;;;;;;;;;;;;;13.33;nan;101535.75;5043283;28;19969;-35
2023/01/10 08:43:31;;;;;;;;;;;;;;;13.34;nan;101541.94;5038232;28;20468;-35
2023/01/10 08:45:57;;;;;;;;;;;;;;;13.34;nan;101544.63;5040819;28;19924;-35
2023/01/10 08:48:22;;;;;;;;;;;;;;;13.29;nan;101545.38;5048108;28;19917;-35
2023/01/10 08:50:47;;;;;;;;;;;;;;;13.30;nan;101549.72;5045291;28;20020;-35
2023/01/10 08:53:13;;;;;;;;;;;;;;;13.26;nan;101556.63;5046916;28;20469;-36
2023/01/10 08:55:38;;;;;;;;;;;;;;;13.25;nan;101549.59;5047922;28;20155;-35
2023/01/10 08:58:04;;;;;;;;;;;;;;;13.29;nan;101556.16;5039252;28;19921;-35
2023/01/10 09:00:29;;;;;;;;;;;;;;;13.28;nan;101558.03;5047499;28;19975;-35
2023/01/10 09:02:55;;;;;;;;;;;;;;;13.28;nan;101558.03;5047855;28;20011;-35
2023/01/10 09:05:20;;;;;;;;;;;;;;;13.30;nan;101569.34;5039207;28;19974;-35
2023/01/10 09:07:46;;;;;;;;;;;;;;;13.38;nan;101575.38;5045472;28;19994;-36
2023/01/10 09:10:11;;;;;;;;;;;;;;;13.34;nan;101575.06;5041776;28;19921;-35
2023/01/10 09:12:55;;;;;;;;;;;;;;;13.39;nan;101582.38;5046498;28;19929;-35
2023/01/10 09:15:21;;;;;;;;;;;;;;;13.46;nan;101578.44;5046918;28;19932;-36
2023/01/10 09:17:48;;;;;;;;;;;;;;;13.43;nan;101583.53;5043857;28;20294;-35
2023/01/10 09:20:14;;;;;;;;;;;;;;;13.43;nan;101587.03;5034640;28;20522;-36
2023/01/10 09:22:39;;;;;;;;;;;;;;;13.47;nan;101590.06;5046450;28;19956;-35
2023/01/10 09:25:05;;;;;;;;;;;;;;;13.51;nan;101593.88;5044711;28;19921;-35
2023/01/10 09:27:31;;;;;;;;;;;;;;;13.56;nan;101594.78;5044753;28;19917;-35
2023/01/10 09:29:56;;;;;;;;;;;;;;;13.60;nan;101593.22;5046838;28;20374;-35
2023/01/10 09:32:21;;;;;;;;;;;;;;;13.63;nan;101599.97;5046410;28;20108;-35
2023/01/10 09:34:47;;;;;;;;;;;;;;;13.66;nan;101610.28;5037188;28;19920;-35
2023/01/10 09:37:12;;;;;;;;;;;;;;;13.64;nan;101616.94;5042136;28;19932;-35
2023/01/10 09:39:37;;;;;;;;;;;;;;;13.72;nan;101611.97;5045369;28;19951;-35
2023/01/10 09:42:15;;;;;;;;;;;;;;;13.70;nan;101622.16;5039215;28;19925;-35
2023/01/10 09:44:55;;;;;;;;;;;;;;;13.69;nan;101617.03;5042962;28;19921;-36
2023/01/10 09:47:26;;;;;;;;;;;;;;;13.64;nan;101623.13;5044860;28;20457;-36
2023/01/10 09:49:51;;;;;;;;;;;;;;;13.66;nan;101628.31;5044410;28;19960;-35
2023/01/10 09:52:26;;;;;;;;;;;;;;;13.59;nan;101623.06;5045175;28;19971;-35
2023/01/10 09:54:53;;;;;;;;;;;;;;;13.56;nan;101627.06;5044707;28;19947;-35
2023/01/10 09:57:20;;;;;;;;;;;;;;;13.62;nan;101622.56;5038679;28;19921;-36
2023/01/10 09:59:49;;;;;;;;;;;;;;;13.62;nan;101630.66;5049962;28;20293;-35
2023/01/10 10:02:18;;;;;;;;;;;;;;;13.65;nan;101624.00;5046379;28;20822;-36
2023/01/10 10:04:45;;;;;;;;;;;;;;;13.68;nan;101626.19;5047975;28;19960;-36
2023/01/10 10:07:14;;;;;;;;;;;;;;;13.74;nan;101625.19;5050271;28;19916;-36
2023/01/10 10:09:39;;;;;;;;;;;;;;;13.74;nan;101622.50;5051790;28;19920;-36
2023/01/10 10:12:24;;;;;;;;;;;;;;;13.82;nan;101624.75;5047451;28;19923;-36
2023/01/10 10:15:02;;;;;;;;;;;;;;;13.83;nan;101626.41;5047382;28;19939;-35
2023/01/10 10:17:31;;;;;;;;;;;;;;;13.81;nan;101633.88;5049686;28;19949;-35
2023/01/10 10:20:05;;;;;;;;;;;;;;;13.81;nan;101623.13;5046878;28;19928;-36
2023/01/10 10:22:30;;;;;;;;;;;;;;;13.83;nan;101629.09;5044903;28;19917;-36
2023/01/10 10:25:14;;;;;;;;;;;;;;;13.87;nan;101627.53;5043459;28;20374;-36
2023/01/10 10:27:39;;;;;;;;;;;;;;;13.88;nan;101639.94;5046912;28;19928;-35
2023/01/10 10:30:31;;;;;;;;;;;;;;;13.90;nan;101637.81;5044273;28;19920;-35
2023/01/10 10:33:12;;;;;;;;;;;;;;;13.98;nan;101650.03;5041298;28;20406;-36
2023/01/10 10:35:40;;;;;;;;;;;;;;;13.96;nan;101650.28;5046514;28;20366;-35
2023/01/10 10:38:11;;;;;;;;;;;;;;;14.01;nan;101653.06;5045290;28;20400;-35
2023/01/10 10:40:38;;;;;;;;;;;;;;;14.04;nan;101651.75;5049861;28;20377;-35
2023/01/10 10:43:12;;;;;;;;;;;;;;;14.07;nan;101660.13;5045759;28;19921;-36
2023/01/10 10:45:41;;;;;;;;;;;;;;;14.09;nan;101652.63;5049821;28;20285;-35
2023/01/10 10:48:14;;;;;;;;;;;;;;;14.14;nan;101649.16;5049087;28;19917;-35
2023/01/10 10:50:47;;;;;;;;;;;;;;;14.14;nan;101662.63;5038005;28;19924;-35
2023/01/10 10:53:12;;;;;;;;;;;;;;;14.18;nan;101656.53;5044947;28;19956;-36
2023/01/10 10:55:38;;;;;;;;;;;;;;;14.13;nan;101656.44;5044438;28;20370;-35
2023/01/10 10:58:06;;;;;;;;;;;;;;;14.10;nan;101654.25;5048094;28;21371;-35
2023/01/10 11:00:31;;;;;;;;;;;;;;;14.07;nan;101664.72;5042976;28;20367;-35
2023/01/10 11:03:06;;;;;;;;;;;;;;;14.06;nan;101666.59;5049313;28;20008;-35
2023/01/10 11:05:35;;;;;;;;;;;;;;;14.10;nan;101662.31;5045386;28;19917;-36
2023/01/10 11:08:10;;;;;;;;;;;;;;;14.17;nan;101660.25;5046758;28;19916;-36
2023/01/10 11:10:37;;;;;;;;;;;;;;;14.19;nan;101671.63;5044333;28;20378;-35
2023/01/10 11:13:14;;;;;;;;;;;;;;;14.21;nan;101677.59;5045758;28;19939;-36
2023/01/10 11:15:43;;;;;;;;;;;;;;;14.24;nan;101687.03;5045590;28;20421;-35
2023/01/10 11:18:13;;;;;;;;;;;;;;;14.26;nan;101678.72;5044725;28;19917;-35
2023/01/10 11:20:51;;;;;;;;;;;;;;;14.30;nan;101687.91;5039448;28;20390;-36
2023/01/10 11:23:30;;;;;;;;;;;;;;;14.27;nan;101688.41;5042436;28;19927;-36
2023/01/10 11:25:55;;;;;;;;;;;;;;;14.28;nan;101690.06;5037332;28;19921;-35
2023/01/10 11:28:24;;;;;;;;;;;;;;;14.29;nan;101694.38;5038332;28;20309;-36
2023/01/10 11:30:50;;;;;;;;;;;;;;;14.30;nan;101696.81;5036993;28;20306;-36
2023/01/10 11:33:24;;;;;;;;;;;;;;;14.33;nan;101700.88;5043725;28;19928;-36
2023/01/10 11:36:00;;;;;;;;;;;;;;;14.28;nan;101696.25;5038573;28;20379;-35
2023/01/10 11:38:28;;;;;;;;;;;;;;;14.26;nan;101703.78;5041060;28;19920;-35
2023/01/10 11:40:54;;;;;;;;;;;;;;;14.27;nan;101705.41;5042620;28;19925;-36
2023/01/10 11:43:24;;;;;;;;;;;;;;;14.32;nan;101699.25;5042581;28;19974;-36
2023/01/10 11:46:01;;;;;;;;;;;;;;;14.33;nan;101703.59;5038810;28;20083;-36
2023/01/10 11:48:30;;;;;;;;;;;;;;;14.36;nan;101701.22;5044507;28;19921;-35
2023/01/10 11:50:56;;;;;;;;;;;;;;;14.45;nan;101698.94;5037129;28;20370;-36
2023/01/10 11:53:31;;;;;;;;;;;;;;;14.55;nan;101699.06;5042819;28;19916;-35
2023/01/10 11:55:56;;;;;;;;;;;;;;;14.56;nan;101697.19;5038101;28;19921;-36
2023/01/10 11:58:22;;;;;;;;;;;;;;;14.63;nan;101687.00;5045175;28;20625;-35
2023/01/10 12:00:48;;;;;;;;;;;;;;;14.76;nan;101683.94;5034434;28;20020;-35
2023/01/10 12:03:28;;;;;;;;;;;;;;;14.94;nan;101688.16;5035541;28;21289;-35
2023/01/10 12:06:01;;;;;;;;;;;;;;;15.14;nan;101684.84;5039695;28;19916;-36
2023/01/10 12:08:30;;;;;;;;;;;;;;;15.34;nan;101691.25;5040654;28;19954;-36
2023/01/10 12:11:01;;;;;;;;;;;;;;;15.37;nan;101696.13;5041135;28;19921;-35
2023/01/10 12:13:29;;;;;;;;;;;;;;;15.42;nan;101696.16;5042313;28;19928;-35
2023/01/10 12:16:27;;;;;;;;;;;;;;;15.48;nan;101698.94;5036132;28;20302;-36
2023/01/10 12:18:58;;;;;;;;;;;;;;;15.41;nan;101697.25;5008751;28;19921;-36
2023/01/10 12:21:44;;;;;;;;;;;;;;;15.46;nan;101695.69;5041764;28;20354;-36
2023/01/10 12:24:42;;;;;;;;;;;;;;;15.50;nan;101697.59;5039831;28;19920;-35
2023/01/10 12:27:11;;;;;;;;;;;;;;;15.57;nan;101702.78;5018224;28;19990;-36
2023/01/10 12:29:46;;;;;;;;;;;;;;;15.67;nan;101716.41;5041596;28;19924;-35
2023/01/10 12:32:22;;;;;;;;;;;;;;;15.68;nan;101718.84;5037980;28;19931;-36
2023/01/10 12:34:56;;;;;;;;;;;;;;;15.67;nan;101719.09;5036260;28;20390;-36
2023/01/10 12:37:31;;;;;;;;;;;;;;;15.49;nan;101722.97;5035143;28;19948;-35
2023/01/10 12:40:03;;;;;;;;;;;;;;;15.37;nan;101742.03;5041001;28;19944;-35
2023/01/10 12:45:37;;;;;;;;;;;;;;;15.42;nan;101739.38;5042323;28;20015;-36
2023/01/10 12:48:03;;;;;;;;;;;;;;;15.36;nan;101743.13;5039994;28;20592;-35
2023/01/10 12:50:32;;;;;;;;;;;;;;;15.32;nan;101747.41;5044255;28;19939;-35
2023/01/10 12:53:16;;;;;;;;;;;;;;;15.30;nan;101749.53;5039253;28;21038;-36
2023/01/10 12:55:43;;;;;;;;;;;;;;;15.18;nan;101751.56;5039088;28;19921;-36
2023/01/10 12:58:16;;;;;;;;;;;;;;;15.13;nan;101754.22;5036644;28;19917;-36
2023/01/10 13:00:45;;;;;;;;;;;;;;;15.16;nan;101758.28;5042212;28;19932;-36
2023/01/10 13:03:12;;;;;;;;;;;;;;;15.18;nan;101759.66;5042143;28;19998;-36
2023/01/10 13:05:37;;;;;;;;;;;;;;;15.23;nan;101753.50;5040848;28;20411;-36
2023/01/10 13:08:09;;;;;;;;;;;;;;;15.27;nan;101747.34;5038676;28;19924;-36
2023/01/10 13:10:37;;;;;;;;;;;;;;;15.38;nan;101746.38;5039147;28;19921;-36
2023/01/10 13:13:11;;;;;;;;;;;;;;;16.19;nan;101742.72;5038073;28;19925;-36